Aérodrome :
LOGIN :

S'inscrire | Disclaimer

   EN    FR    IT 

 










Légende :    VFR   VFR Marginal   IFR   IFR Intensif   IFR Très Intensif
Visi : 
Plafond : 
>= 8 km
>= 3000ft
5 à 8 km
1000 à 3000 ft
1500m à 5 km
500 à 1000 ft
800 à 1500m
200 à 500 ft
< 800m
< 200 ft
Symboles :   Orages  Brouillard  Fortes neiges  Fortes précipitations  Vent > 20 kt
SIGMETs :   Divers  Orages  Givrage  Turbulence  Onde Orograph.  Cendres Volcan.







- Altitude de l'aérodrome : 44 ft
- Code IATA : SOU
- Voir les cartes d'approche


EGHI - Southampton

DERNIER METAR :
  • 101350Z 29005KT 240V320 9999 FEW025 09/03 Q1028

METARs EXPIRÉS :
  • 101320Z 28005KT 250V310 9999 FEW025 09/03 Q1028
  • 101250Z 30004KT 230V330 9999 FEW025 09/03 Q1028
  • 101220Z 28006KT 9999 FEW025 08/03 Q1029
  • 101150Z 28004KT 240V320 9999 FEW038 08/03 Q1028
  • 101120Z 29005KT 240V330 9999 FEW036 08/03 Q1029
  • 101050Z 29005KT 240V330 9999 FEW036 08/04 Q1029

TAF TAF EGHI
Valide du 10 à 12h jusqu'au 10 à 21h UTC


101105Z 1012/1021 29006KT 9999 FEW025
BECMG 1018/1021 6000
ATIS : +44 23 8062 7103
Pas de NOTAMs connus pour ce terrain.



MET'MAP, la Météo Aéronautique d'un coup d'oeil ! - Copyright ORBIFLY Décembre 2007 - Disclaimer

ORBIFLY MET'MAP TEAM :

Programmation & Développement : Alexandra Zaïnal
Conception & Développement : Baudouin d'Aumeries
Co-Programmation & Développement : Marc-Olivier Méhu
Soutien technique & logistique : Manuel Goepfert

Contact : metmap@orbifly.com




SOURCES & CREDITS :

   NOAA